createdAt,value
2022-10-10T00:00:00.703Z,98.30
2022-10-10T00:02:31.202Z,98.30
2022-10-10T00:05:15.986Z,98.50
2022-10-10T00:07:46.422Z,98.30
2022-10-10T00:10:28.047Z,98.30
2022-10-10T00:13:07.817Z,98.30
2022-10-10T00:15:41.732Z,98.30
2022-10-10T00:18:15.078Z,98.50
2022-10-10T00:20:48.571Z,98.40
2022-10-10T00:23:19.237Z,98.40
2022-10-10T00:25:51.601Z,98.30
2022-10-10T00:28:29.622Z,98.40
2022-10-10T00:31:11.725Z,98.30
2022-10-10T00:33:41.690Z,98.30
2022-10-10T00:36:14.830Z,98.20
2022-10-10T00:38:48.020Z,98.30
2022-10-10T00:41:19.441Z,98.40
2022-10-10T00:44:06.763Z,98.20
2022-10-10T00:46:43.892Z,98.30
2022-10-10T00:49:23.400Z,98.30
2022-10-10T00:51:56.779Z,98.30
2022-10-10T00:54:30.495Z,98.40
2022-10-10T00:57:07.443Z,98.40
2022-10-10T00:59:47.202Z,98.40
2022-10-10T01:02:27.469Z,98.40
2022-10-10T01:05:03.681Z,98.40
2022-10-10T01:07:34.802Z,98.40
2022-10-10T01:10:13.260Z,98.50
2022-10-10T01:13:00.127Z,98.60
2022-10-10T01:15:54.221Z,98.50
2022-10-10T01:18:40.444Z,98.50
2022-10-10T01:21:28.674Z,98.40
2022-10-10T01:24:30.308Z,98.60
2022-10-10T01:27:31.893Z,98.70
2022-10-10T01:30:18.376Z,98.70
2022-10-10T01:32:54.677Z,98.60
2022-10-10T01:35:58.035Z,98.60
2022-10-10T01:38:37.799Z,98.50
2022-10-10T01:41:13.735Z,98.70
2022-10-10T01:43:49.751Z,98.70
2022-10-10T01:46:28.335Z,98.80
2022-10-10T01:49:13.974Z,98.70
2022-10-10T01:52:01.142Z,98.70
2022-10-10T01:54:41.501Z,98.80
2022-10-10T01:57:26.019Z,98.70
2022-10-10T02:00:17.582Z,98.70
2022-10-10T02:02:57.128Z,98.70
2022-10-10T02:05:38.321Z,98.70
2022-10-10T02:08:12.983Z,98.70
2022-10-10T02:10:53.664Z,98.70
2022-10-10T02:13:34.288Z,98.70
2022-10-10T02:16:10.226Z,98.70
2022-10-10T02:18:50.500Z,98.70
2022-10-10T02:21:21.393Z,98.70
2022-10-10T02:24:01.361Z,98.70
2022-10-10T02:26:41.297Z,98.70
2022-10-10T02:29:14.714Z,98.70
2022-10-10T02:31:47.216Z,98.70
2022-10-10T02:34:28.688Z,98.70
2022-10-10T02:37:06.590Z,98.70
2022-10-10T02:39:45.090Z,98.70
2022-10-10T02:42:17.750Z,98.70
2022-10-10T02:44:49.832Z,98.60
2022-10-10T02:47:35.491Z,98.70
2022-10-10T02:50:13.515Z,98.70
2022-10-10T02:52:49.879Z,98.70
2022-10-10T02:55:22.073Z,98.70
2022-10-10T02:58:00.824Z,98.70
2022-10-10T03:00:32.463Z,98.70
2022-10-10T03:03:03.685Z,98.70
2022-10-10T03:05:37.477Z,98.70
2022-10-10T03:08:11.632Z,98.60
2022-10-10T03:10:44.113Z,98.70
2022-10-10T03:13:15.235Z,98.90
2022-10-10T03:15:46.429Z,98.60
2022-10-10T03:18:17.155Z,98.60
2022-10-10T03:20:51.042Z,98.70
2022-10-10T03:23:28.854Z,98.70
2022-10-10T03:26:03.334Z,98.60
2022-10-10T03:28:33.950Z,98.60
2022-10-10T03:31:12.625Z,98.60
2022-10-10T03:33:48.903Z,98.60
2022-10-10T03:36:27.708Z,98.60
2022-10-10T03:39:00.097Z,98.60
2022-10-10T03:41:36.895Z,98.50
2022-10-10T03:44:13.639Z,98.50
2022-10-10T03:46:45.663Z,98.50
2022-10-10T03:49:20.589Z,98.50
2022-10-10T03:51:58.309Z,98.80
2022-10-10T03:54:27.526Z,98.50
2022-10-10T03:56:58.496Z,98.50
2022-10-10T03:59:32.702Z,98.50
2022-10-10T04:02:09.613Z,98.50
2022-10-10T04:04:40.557Z,98.50
2022-10-10T04:07:13.841Z,98.70
2022-10-10T04:09:42.743Z,98.80
2022-10-10T04:12:12.701Z,98.70
2022-10-10T04:14:44.938Z,98.70
2022-10-10T04:17:16.312Z,98.70
2022-10-10T04:19:57.606Z,98.80
2022-10-10T04:22:40.283Z,98.70
2022-10-10T04:25:13.660Z,98.70
2022-10-10T04:27:44.484Z,98.80
2022-10-10T04:30:16.119Z,98.70
2022-10-10T04:32:45.905Z,98.90
2022-10-10T04:35:14.661Z,98.80
2022-10-10T04:37:46.934Z,98.80
2022-10-10T04:40:16.971Z,98.70
2022-10-10T04:42:48.962Z,98.70
2022-10-10T04:45:18.335Z,98.70
2022-10-10T04:47:48.562Z,98.70
2022-10-10T04:50:16.850Z,98.70
2022-10-10T04:52:50.360Z,98.70
2022-10-10T04:55:24.825Z,98.60
2022-10-10T04:57:55.403Z,98.60
2022-10-10T05:00:33.093Z,98.70
2022-10-10T05:03:13.745Z,98.70
2022-10-10T05:05:45.512Z,98.80
2022-10-10T05:08:16.499Z,98.70
2022-10-10T05:10:53.648Z,98.70
2022-10-10T05:13:26.810Z,98.70
2022-10-10T05:15:56.649Z,98.70
2022-10-10T05:18:30.025Z,98.70
2022-10-10T05:21:03.978Z,98.60
2022-10-10T05:23:44.224Z,98.90
2022-10-10T05:26:15.795Z,98.80
2022-10-10T05:28:49.176Z,98.70
2022-10-10T05:31:30.886Z,98.80
2022-10-10T05:34:03.482Z,99.10
2022-10-10T05:36:34.058Z,99.10
2022-10-10T05:39:11.584Z,98.90
2022-10-10T05:41:40.295Z,98.90
2022-10-10T05:44:10.951Z,98.80
2022-10-10T05:46:41.374Z,98.90
2022-10-10T05:49:16.319Z,98.80
2022-10-10T05:51:51.143Z,98.90
2022-10-10T05:54:26.923Z,98.90
2022-10-10T05:57:04.228Z,99.00
2022-10-10T05:59:37.783Z,99.00
2022-10-10T06:02:11.786Z,98.90
2022-10-10T06:04:46.485Z,99.20
2022-10-10T06:07:45.504Z,99.30
2022-10-10T06:10:29.605Z,99.30
2022-10-10T06:13:02.067Z,99.20
2022-10-10T06:15:32.733Z,99.30
2022-10-10T06:18:09.839Z,99.30
2022-10-10T06:20:47.875Z,99.40
2022-10-10T06:23:27.770Z,99.50
2022-10-10T06:26:01.626Z,99.70
2022-10-10T06:28:47.194Z,99.80
2022-10-10T06:31:17.769Z,99.90
2022-10-10T06:33:56.470Z,99.90
2022-10-10T06:36:27.849Z,99.90
2022-10-10T06:39:07.239Z,99.90
2022-10-10T06:41:39.694Z,99.90
2022-10-10T06:44:16.654Z,99.90
2022-10-10T06:46:49.019Z,99.90
2022-10-10T07:01:48.934Z,99.90
2022-10-10T07:08:31.678Z,99.90
2022-10-10T07:11:07.181Z,99.90
2022-10-10T07:17:26.926Z,99.90
2022-10-10T07:20:02.645Z,99.90
2022-10-10T07:22:50.490Z,99.90
2022-10-10T07:25:36.024Z,99.90
2022-10-10T07:28:14.547Z,99.90
2022-10-10T07:30:44.349Z,99.90
2022-10-10T07:33:17.567Z,99.90
2022-10-10T07:35:56.887Z,99.90
2022-10-10T07:50:01.704Z,99.90
2022-10-10T08:00:44.868Z,99.90
2022-10-10T08:03:17.789Z,99.90
2022-10-10T08:05:48.899Z,99.90
2022-10-10T08:08:17.374Z,99.90
2022-10-10T08:10:46.109Z,99.90
2022-10-10T08:13:17.887Z,99.90
2022-10-10T08:15:46.172Z,99.90
2022-10-10T08:18:26.001Z,99.90
2022-10-10T08:21:03.254Z,99.90
2022-10-10T08:23:39.419Z,99.90
2022-10-10T08:26:14.860Z,99.90
2022-10-10T08:28:49.120Z,99.90
2022-10-10T08:31:29.731Z,99.90
2022-10-10T08:33:59.160Z,99.90
2022-10-10T08:36:31.796Z,99.90
2022-10-10T08:39:10.086Z,99.90
2022-10-10T08:42:04.537Z,99.90
2022-10-10T08:45:56.276Z,99.90
2022-10-10T08:48:52.164Z,99.90
2022-10-10T08:51:28.884Z,99.90
2022-10-10T08:54:07.108Z,99.90
2022-10-10T08:56:53.238Z,99.90
2022-10-10T09:00:01.603Z,99.90
2022-10-10T09:07:41.263Z,99.90
2022-10-10T09:14:48.987Z,99.90
2022-10-10T09:17:38.842Z,99.90
2022-10-10T09:20:21.770Z,99.90
2022-10-10T09:22:54.937Z,99.90
2022-10-10T09:25:30.924Z,99.90
2022-10-10T09:28:16.234Z,99.90
2022-10-10T09:30:55.410Z,99.90
2022-10-10T09:33:31.641Z,99.90
2022-10-10T09:36:08.950Z,99.90
2022-10-10T09:38:44.475Z,99.90
2022-10-10T09:41:25.221Z,99.90
2022-10-10T09:43:57.699Z,99.90
2022-10-10T09:46:30.389Z,99.90
2022-10-10T09:49:19.985Z,99.90
2022-10-10T09:52:25.123Z,99.90
2022-10-10T09:55:01.519Z,99.90
2022-10-10T09:57:41.127Z,99.90
2022-10-10T10:00:50.910Z,99.90
2022-10-10T10:03:32.671Z,99.90
2022-10-10T10:06:07.290Z,99.90
2022-10-10T10:08:51.691Z,99.90
2022-10-10T10:11:32.575Z,99.90
2022-10-10T10:14:04.827Z,99.90
2022-10-10T10:16:43.815Z,99.90
2022-10-10T10:19:43.596Z,99.90
2022-10-10T10:22:42.649Z,99.90
2022-10-10T10:25:39.659Z,99.90
2022-10-10T10:28:25.315Z,99.90
2022-10-10T10:30:56.920Z,99.90
2022-10-10T10:33:44.707Z,99.90
2022-10-10T10:36:42.737Z,99.90
2022-10-10T10:39:52.606Z,99.90
2022-10-10T10:42:51.675Z,99.90
2022-10-10T10:45:31.562Z,99.90
2022-10-10T10:48:12.038Z,99.90
2022-10-10T10:51:01.122Z,99.90
2022-10-10T10:53:56.266Z,99.90
2022-10-10T10:56:51.179Z,99.90
2022-10-10T11:00:21.726Z,99.90
2022-10-10T11:03:14.999Z,99.90
2022-10-10T11:06:27.629Z,99.90
2022-10-10T11:12:56.705Z,99.90
2022-10-10T11:20:49.881Z,99.90
2022-10-10T11:23:28.297Z,99.90
2022-10-10T11:26:48.677Z,99.90
2022-10-10T11:29:35.436Z,99.90
2022-10-10T11:38:48.524Z,99.90
2022-10-10T11:42:04.599Z,99.90
2022-10-10T11:48:13.903Z,99.90
2022-10-10T11:51:27.502Z,99.90
2022-10-10T11:58:57.187Z,99.90
2022-10-10T12:02:00.871Z,99.90
2022-10-10T12:04:44.986Z,99.90
2022-10-10T12:08:02.003Z,99.90
2022-10-10T12:11:05.555Z,99.90
2022-10-10T12:13:42.729Z,99.90
2022-10-10T12:16:19.515Z,99.90
2022-10-10T12:19:05.672Z,99.90
2022-10-10T12:21:55.746Z,99.90
2022-10-10T12:24:29.284Z,99.90
2022-10-10T12:27:32.713Z,99.90
2022-10-10T12:30:45.405Z,99.90
2022-10-10T12:33:35.647Z,99.90
2022-10-10T12:36:45.148Z,99.90
2022-10-10T12:39:38.463Z,99.90
2022-10-10T12:42:43.078Z,99.90
2022-10-10T12:45:45.059Z,99.90
2022-10-10T12:48:32.540Z,99.90
2022-10-10T12:51:05.298Z,99.90
2022-10-10T12:53:45.027Z,99.90
2022-10-10T12:56:45.347Z,99.90
2022-10-10T12:59:24.758Z,99.90
2022-10-10T13:02:01.093Z,99.90
2022-10-10T13:05:07.791Z,99.90
2022-10-10T13:07:55.375Z,99.90
2022-10-10T13:10:33.938Z,99.90
2022-10-10T13:13:49.246Z,99.90
2022-10-10T13:16:53.302Z,99.90
2022-10-10T13:19:57.727Z,99.90
2022-10-10T13:22:35.126Z,99.90
2022-10-10T13:25:16.526Z,99.90
2022-10-10T13:27:54.945Z,99.90
2022-10-10T13:30:34.700Z,99.90
2022-10-10T13:33:10.859Z,99.90
2022-10-10T13:35:48.489Z,99.90
2022-10-10T13:39:10.430Z,99.90
2022-10-10T13:42:14.440Z,99.90
2022-10-10T13:45:12.950Z,99.90
2022-10-10T13:47:59.636Z,99.90
2022-10-10T13:50:37.439Z,99.90
2022-10-10T13:53:42.611Z,99.90
2022-10-10T13:57:02.721Z,99.90
2022-10-10T13:59:50.029Z,99.90
2022-10-10T14:02:26.728Z,99.90
2022-10-10T14:04:59.112Z,99.90
2022-10-10T14:07:41.200Z,99.90
2022-10-10T14:23:27.303Z,99.90
2022-10-10T14:26:02.657Z,99.90
2022-10-10T14:28:37.327Z,99.90
2022-10-10T14:31:11.425Z,99.90
2022-10-10T14:33:43.775Z,99.90
2022-10-10T14:36:22.916Z,99.90
2022-10-10T14:38:51.670Z,99.90
2022-10-10T14:41:37.747Z,99.90
2022-10-10T14:44:17.935Z,99.90
2022-10-10T14:46:58.022Z,99.90
2022-10-10T14:49:35.975Z,99.90
2022-10-10T14:52:14.557Z,99.90
2022-10-10T14:54:43.259Z,99.90
2022-10-10T14:57:24.132Z,99.90
2022-10-10T14:59:57.899Z,99.90
2022-10-10T15:02:43.206Z,99.90
2022-10-10T15:05:20.253Z,99.90
2022-10-10T15:07:54.942Z,99.90
2022-10-10T15:10:35.057Z,99.90
2022-10-10T15:13:16.156Z,99.90
2022-10-10T15:15:50.259Z,99.90
2022-10-10T15:18:52.840Z,99.90
2022-10-10T15:21:18.446Z,99.90
2022-10-10T15:23:55.611Z,99.90
2022-10-10T15:26:30.626Z,99.90
2022-10-10T15:29:03.006Z,99.90
2022-10-10T15:31:40.659Z,99.90
2022-10-10T15:34:14.606Z,99.90
2022-10-10T15:36:43.906Z,99.90
2022-10-10T15:39:26.976Z,99.90
2022-10-10T15:41:57.691Z,99.90
2022-10-10T15:44:31.694Z,99.90
2022-10-10T15:47:00.602Z,99.90
2022-10-10T15:49:29.378Z,99.90
2022-10-10T15:52:00.160Z,99.90
2022-10-10T15:54:29.594Z,99.90
2022-10-10T15:57:07.331Z,99.90
2022-10-10T15:59:43.520Z,99.90
2022-10-10T16:02:30.785Z,99.90
2022-10-10T16:05:02.106Z,99.90
2022-10-10T16:07:38.487Z,99.90
2022-10-10T16:10:18.981Z,99.90
2022-10-10T16:12:55.436Z,99.90
2022-10-10T16:15:34.063Z,99.90
2022-10-10T16:18:07.254Z,99.90
2022-10-10T16:20:41.822Z,99.90
2022-10-10T16:23:12.640Z,99.90
2022-10-10T16:25:43.078Z,99.90
2022-10-10T16:28:14.110Z,99.90
2022-10-10T16:30:49.755Z,99.90
2022-10-10T16:33:18.603Z,99.90
2022-10-10T16:35:50.699Z,99.90
2022-10-10T16:38:19.750Z,99.90
2022-10-10T16:40:49.594Z,99.90
2022-10-10T16:43:22.904Z,99.90
2022-10-10T16:45:53.364Z,99.90
2022-10-10T16:48:27.533Z,99.90
2022-10-10T16:50:59.562Z,99.90
2022-10-10T16:53:32.521Z,99.90
2022-10-10T16:56:10.600Z,99.90
2022-10-10T16:58:42.609Z,99.90
2022-10-10T17:01:18.008Z,99.90
2022-10-10T17:03:49.096Z,99.90
2022-10-10T17:06:24.853Z,99.90
2022-10-10T17:09:05.147Z,99.90
2022-10-10T17:11:39.856Z,99.90
2022-10-10T17:14:13.226Z,99.90
2022-10-10T17:19:48.868Z,99.90
2022-10-10T17:22:27.933Z,99.90
2022-10-10T17:24:56.965Z,99.90
2022-10-10T17:27:35.913Z,99.90
2022-10-10T17:30:15.829Z,99.90
2022-10-10T17:32:54.815Z,99.90
2022-10-10T17:35:25.321Z,99.90
2022-10-10T17:37:56.118Z,99.90
2022-10-10T17:40:27.972Z,99.90
2022-10-10T17:43:03.844Z,99.90
2022-10-10T17:45:45.107Z,99.90
2022-10-10T17:48:20.584Z,99.90
2022-10-10T17:50:51.064Z,99.90
2022-10-10T17:53:33.685Z,99.90
2022-10-10T17:56:08.827Z,99.90
2022-10-10T17:58:37.927Z,99.90
2022-10-10T18:01:14.588Z,99.90
2022-10-10T18:03:53.894Z,99.90
2022-10-10T18:06:24.455Z,99.90
2022-10-10T18:09:03.964Z,99.90
2022-10-10T18:11:44.857Z,99.90
2022-10-10T18:14:15.467Z,99.90
2022-10-10T18:16:50.269Z,99.90
2022-10-10T18:19:30.180Z,99.90
2022-10-10T18:21:58.652Z,99.90
2022-10-10T18:24:29.867Z,99.90
2022-10-10T18:27:01.341Z,99.90
2022-10-10T18:29:36.863Z,99.90
2022-10-10T18:32:13.647Z,99.90
2022-10-10T18:34:55.126Z,99.90
2022-10-10T18:37:24.025Z,99.90
2022-10-10T18:39:58.286Z,99.90
2022-10-10T18:42:39.004Z,99.90
2022-10-10T18:45:10.401Z,99.90
2022-10-10T18:47:41.104Z,99.90
2022-10-10T18:50:15.572Z,99.90
2022-10-10T18:52:47.784Z,99.90
2022-10-10T18:55:20.503Z,99.90
2022-10-10T18:57:52.491Z,99.90
2022-10-10T19:00:27.294Z,99.90
2022-10-10T19:02:59.001Z,99.90
2022-10-10T19:05:29.349Z,99.90
2022-10-10T19:08:05.901Z,99.90
2022-10-10T19:10:39.373Z,99.90
2022-10-10T19:13:12.637Z,99.90
2022-10-10T19:15:44.338Z,99.90
2022-10-10T19:18:27.665Z,99.90
2022-10-10T19:21:04.142Z,99.90
2022-10-10T19:23:39.185Z,99.90
2022-10-10T19:26:13.295Z,99.90
2022-10-10T19:28:51.681Z,99.90
2022-10-10T19:31:23.746Z,99.90
2022-10-10T19:33:58.099Z,99.90
2022-10-10T19:36:30.621Z,99.90
2022-10-10T19:39:01.437Z,99.90
2022-10-10T19:41:32.355Z,99.90
2022-10-10T19:44:07.646Z,99.90
2022-10-10T19:46:37.930Z,99.90
2022-10-10T19:49:12.398Z,99.90
2022-10-10T19:51:45.329Z,99.90
2022-10-10T19:54:22.044Z,99.90
2022-10-10T19:56:52.322Z,99.90
2022-10-10T19:59:23.604Z,99.90
2022-10-10T20:01:55.232Z,99.90
2022-10-10T20:04:27.310Z,99.90
2022-10-10T20:06:56.940Z,99.90
2022-10-10T20:09:36.520Z,99.90
2022-10-10T20:12:05.853Z,99.90
2022-10-10T20:14:34.335Z,99.90
2022-10-10T20:17:06.043Z,99.90
2022-10-10T20:19:35.007Z,99.90
2022-10-10T20:22:06.049Z,99.90
2022-10-10T20:24:40.281Z,99.90
2022-10-10T20:27:09.353Z,99.90
2022-10-10T20:29:42.138Z,99.90
2022-10-10T20:32:11.782Z,99.90
2022-10-10T20:34:47.301Z,99.90
2022-10-10T20:37:25.300Z,99.90
2022-10-10T20:40:00.635Z,99.90
2022-10-10T20:42:29.553Z,99.90
2022-10-10T20:45:11.570Z,99.90
2022-10-10T20:47:41.585Z,99.90
2022-10-10T20:50:11.190Z,99.90
2022-10-10T20:52:45.524Z,99.90
2022-10-10T20:55:19.559Z,99.90
2022-10-10T20:57:56.704Z,99.90
2022-10-10T21:00:31.480Z,99.90
2022-10-10T21:03:08.076Z,99.90
2022-10-10T21:05:38.996Z,99.90
2022-10-10T21:08:12.234Z,99.90
2022-10-10T21:10:43.473Z,99.90
2022-10-10T21:13:19.932Z,99.90
2022-10-10T21:15:51.575Z,99.90
2022-10-10T21:18:28.323Z,99.90
2022-10-10T21:21:10.955Z,99.90
2022-10-10T21:23:44.703Z,99.90
2022-10-10T21:26:19.451Z,99.90
2022-10-10T21:28:50.899Z,99.90
2022-10-10T21:31:27.839Z,99.90
2022-10-10T21:33:59.158Z,99.90
2022-10-10T21:36:36.717Z,99.90
2022-10-10T21:39:16.048Z,99.90
2022-10-10T21:41:44.562Z,99.90
2022-10-10T21:44:16.613Z,99.90
2022-10-10T21:46:48.255Z,99.90
2022-10-10T21:49:18.886Z,99.90
2022-10-10T21:51:50.264Z,99.90
2022-10-10T21:54:19.987Z,99.90
2022-10-10T21:56:50.079Z,99.90
2022-10-10T21:59:18.735Z,99.90
2022-10-10T22:01:48.727Z,99.90
2022-10-10T22:04:18.408Z,99.90
2022-10-10T22:06:56.871Z,99.90
2022-10-10T22:09:28.812Z,99.90
2022-10-10T22:12:00.850Z,99.90
2022-10-10T22:14:31.261Z,99.90
2022-10-10T22:17:05.931Z,99.90
2022-10-10T22:19:37.078Z,99.90
2022-10-10T22:22:13.669Z,99.90
2022-10-10T22:24:50.917Z,99.90
2022-10-10T22:27:36.705Z,99.90
2022-10-10T22:30:07.872Z,99.90
2022-10-10T22:32:38.408Z,99.90
2022-10-10T22:35:08.335Z,99.90
2022-10-10T22:37:42.150Z,99.90
2022-10-10T22:40:19.527Z,99.90
2022-10-10T22:42:50.668Z,99.90
2022-10-10T22:45:22.300Z,99.90
2022-10-10T22:48:02.828Z,99.90
2022-10-10T22:50:40.227Z,99.90
2022-10-10T22:53:11.176Z,99.90
2022-10-10T22:55:44.963Z,99.90
2022-10-10T22:58:19.195Z,99.90
2022-10-10T23:00:53.910Z,99.90
2022-10-10T23:03:22.794Z,99.90
2022-10-10T23:05:53.148Z,99.90
2022-10-10T23:08:24.156Z,99.90
2022-10-10T23:10:56.472Z,99.90
2022-10-10T23:13:37.340Z,99.90
2022-10-10T23:16:13.355Z,99.90
2022-10-10T23:18:44.156Z,99.90
2022-10-10T23:21:13.674Z,99.90
2022-10-10T23:23:49.150Z,99.90
2022-10-10T23:26:24.018Z,99.90
2022-10-10T23:28:54.018Z,99.90
2022-10-10T23:31:24.255Z,99.90
2022-10-10T23:34:02.700Z,99.90
2022-10-10T23:36:34.017Z,99.90
2022-10-10T23:39:09.975Z,99.90
2022-10-10T23:41:46.089Z,99.90
2022-10-10T23:44:17.556Z,99.90
2022-10-10T23:46:49.133Z,99.90
2022-10-10T23:49:22.094Z,99.90
2022-10-10T23:52:03.860Z,99.90
2022-10-10T23:54:34.416Z,99.90
2022-10-10T23:57:11.944Z,99.90
2022-10-10T23:59:43.039Z,99.90
